sensor_id;sensor_type;location;lat;lon;timestamp;P1;durP1;ratioP1;P2;durP2;ratioP2
9698;SDS011;10089;47.876;8.346;2023-05-29T00:00:47;7.43;;;4.65;;
9698;SDS011;10089;47.876;8.346;2023-05-29T00:03:13;9.70;;;5.15;;
9698;SDS011;10089;47.876;8.346;2023-05-29T00:05:38;8.43;;;4.65;;
9698;SDS011;10089;47.876;8.346;2023-05-29T00:08:04;10.35;;;4.50;;
9698;SDS011;10089;47.876;8.346;2023-05-29T00:10:31;7.40;;;4.88;;
9698;SDS011;10089;47.876;8.346;2023-05-29T00:12:57;9.35;;;4.93;;
9698;SDS011;10089;47.876;8.346;2023-05-29T00:15:25;7.25;;;4.50;;
9698;SDS011;10089;47.876;8.346;2023-05-29T00:17:51;7.65;;;4.50;;
9698;SDS011;10089;47.876;8.346;2023-05-29T00:20:17;8.27;;;4.40;;
9698;SDS011;10089;47.876;8.346;2023-05-29T00:22:43;9.30;;;4.80;;
9698;SDS011;10089;47.876;8.346;2023-05-29T00:25:09;8.80;;;5.30;;
9698;SDS011;10089;47.876;8.346;2023-05-29T00:27:34;8.13;;;4.97;;
9698;SDS011;10089;47.876;8.346;2023-05-29T00:30:01;7.85;;;4.40;;
9698;SDS011;10089;47.876;8.346;2023-05-29T00:32:27;10.75;;;5.40;;
9698;SDS011;10089;47.876;8.346;2023-05-29T00:34:53;6.82;;;4.65;;
9698;SDS011;10089;47.876;8.346;2023-05-29T00:37:20;9.48;;;4.90;;
9698;SDS011;10089;47.876;8.346;2023-05-29T00:39:47;8.80;;;4.30;;
9698;SDS011;10089;47.876;8.346;2023-05-29T00:42:13;10.55;;;4.70;;
9698;SDS011;10089;47.876;8.346;2023-05-29T00:44:38;10.18;;;4.75;;
9698;SDS011;10089;47.876;8.346;2023-05-29T00:47:04;5.70;;;3.90;;
9698;SDS011;10089;47.876;8.346;2023-05-29T00:49:31;9.65;;;4.57;;
9698;SDS011;10089;47.876;8.346;2023-05-29T00:51:58;9.38;;;4.72;;
9698;SDS011;10089;47.876;8.346;2023-05-29T00:54:26;8.63;;;5.03;;
9698;SDS011;10089;47.876;8.346;2023-05-29T00:56:54;8.07;;;4.57;;
9698;SDS011;10089;47.876;8.346;2023-05-29T00:59:21;11.02;;;4.63;;
9698;SDS011;10089;47.876;8.346;2023-05-29T01:01:51;7.95;;;4.13;;
9698;SDS011;10089;47.876;8.346;2023-05-29T01:04:17;8.30;;;4.82;;
9698;SDS011;10089;47.876;8.346;2023-05-29T01:06:43;9.43;;;5.00;;
9698;SDS011;10089;47.876;8.346;2023-05-29T01:09:09;7.18;;;4.65;;
9698;SDS011;10089;47.876;8.346;2023-05-29T01:14:23;6.90;;;4.30;;
9698;SDS011;10089;47.876;8.346;2023-05-29T01:17:17;8.15;;;4.63;;
9698;SDS011;10089;47.876;8.346;2023-05-29T01:28:24;13.18;;;4.90;;
9698;SDS011;10089;47.876;8.346;2023-05-29T01:30:53;7.45;;;4.82;;
9698;SDS011;10089;47.876;8.346;2023-05-29T01:33:21;10.75;;;4.78;;
9698;SDS011;10089;47.876;8.346;2023-05-29T01:35:46;9.60;;;5.25;;
9698;SDS011;10089;47.876;8.346;2023-05-29T01:38:12;8.75;;;4.82;;
9698;SDS011;10089;47.876;8.346;2023-05-29T01:40:38;9.55;;;5.00;;
9698;SDS011;10089;47.876;8.346;2023-05-29T01:43:03;10.52;;;5.35;;
9698;SDS011;10089;47.876;8.346;2023-05-29T01:45:30;8.57;;;5.03;;
9698;SDS011;10089;47.876;8.346;2023-05-29T01:47:56;10.10;;;5.30;;
9698;SDS011;10089;47.876;8.346;2023-05-29T01:50:22;9.13;;;4.65;;
9698;SDS011;10089;47.876;8.346;2023-05-29T01:52:49;9.82;;;5.47;;
9698;SDS011;10089;47.876;8.346;2023-05-29T01:55:15;7.70;;;4.45;;
9698;SDS011;10089;47.876;8.346;2023-05-29T01:57:41;9.48;;;5.32;;
9698;SDS011;10089;47.876;8.346;2023-05-29T02:00:07;10.25;;;5.25;;
9698;SDS011;10089;47.876;8.346;2023-05-29T02:02:40;9.55;;;5.88;;
9698;SDS011;10089;47.876;8.346;2023-05-29T02:05:06;9.10;;;4.78;;
9698;SDS011;10089;47.876;8.346;2023-05-29T02:07:33;11.98;;;4.93;;
9698;SDS011;10089;47.876;8.346;2023-05-29T02:09:59;7.72;;;4.63;;
9698;SDS011;10089;47.876;8.346;2023-05-29T02:12:25;12.45;;;5.03;;
9698;SDS011;10089;47.876;8.346;2023-05-29T02:14:51;9.05;;;5.25;;
9698;SDS011;10089;47.876;8.346;2023-05-29T02:17:17;8.45;;;4.97;;
9698;SDS011;10089;47.876;8.346;2023-05-29T02:19:44;11.82;;;5.32;;
9698;SDS011;10089;47.876;8.346;2023-05-29T02:22:09;12.93;;;4.70;;
9698;SDS011;10089;47.876;8.346;2023-05-29T02:24:35;9.20;;;4.80;;
9698;SDS011;10089;47.876;8.346;2023-05-29T02:27:01;10.48;;;5.15;;
9698;SDS011;10089;47.876;8.346;2023-05-29T02:29:28;9.05;;;5.07;;
9698;SDS011;10089;47.876;8.346;2023-05-29T02:31:53;12.98;;;5.32;;
9698;SDS011;10089;47.876;8.346;2023-05-29T02:34:19;9.40;;;5.35;;
9698;SDS011;10089;47.876;8.346;2023-05-29T02:36:47;6.93;;;4.63;;
9698;SDS011;10089;47.876;8.346;2023-05-29T02:39:14;9.23;;;5.25;;
9698;SDS011;10089;47.876;8.346;2023-05-29T02:41:39;10.93;;;5.25;;
9698;SDS011;10089;47.876;8.346;2023-05-29T02:44:05;8.60;;;4.78;;
9698;SDS011;10089;47.876;8.346;2023-05-29T02:46:31;10.15;;;4.97;;
9698;SDS011;10089;47.876;8.346;2023-05-29T02:48:56;9.13;;;5.05;;
9698;SDS011;10089;47.876;8.346;2023-05-29T02:51:22;10.85;;;5.25;;
9698;SDS011;10089;47.876;8.346;2023-05-29T02:53:48;10.05;;;5.25;;
9698;SDS011;10089;47.876;8.346;2023-05-29T02:56:14;9.98;;;4.93;;
9698;SDS011;10089;47.876;8.346;2023-05-29T02:58:40;11.00;;;5.03;;
9698;SDS011;10089;47.876;8.346;2023-05-29T03:01:07;8.60;;;5.68;;
9698;SDS011;10089;47.876;8.346;2023-05-29T03:03:33;9.35;;;5.53;;
9698;SDS011;10089;47.876;8.346;2023-05-29T03:05:59;7.63;;;5.32;;
9698;SDS011;10089;47.876;8.346;2023-05-29T03:08:26;9.60;;;4.97;;
9698;SDS011;10089;47.876;8.346;2023-05-29T03:10:53;9.23;;;5.45;;
9698;SDS011;10089;47.876;8.346;2023-05-29T03:13:19;8.82;;;5.05;;
9698;SDS011;10089;47.876;8.346;2023-05-29T03:15:45;9.48;;;5.03;;
9698;SDS011;10089;47.876;8.346;2023-05-29T03:18:11;9.95;;;5.47;;
9698;SDS011;10089;47.876;8.346;2023-05-29T03:20:36;11.48;;;4.95;;
9698;SDS011;10089;47.876;8.346;2023-05-29T03:23:02;9.38;;;4.72;;
9698;SDS011;10089;47.876;8.346;2023-05-29T03:25:28;7.40;;;5.00;;
9698;SDS011;10089;47.876;8.346;2023-05-29T03:27:54;5.55;;;4.57;;
9698;SDS011;10089;47.876;8.346;2023-05-29T03:30:20;7.63;;;5.22;;
9698;SDS011;10089;47.876;8.346;2023-05-29T03:32:46;8.77;;;5.03;;
9698;SDS011;10089;47.876;8.346;2023-05-29T03:35:12;8.45;;;5.05;;
9698;SDS011;10089;47.876;8.346;2023-05-29T03:37:37;9.57;;;4.85;;
9698;SDS011;10089;47.876;8.346;2023-05-29T03:40:03;8.45;;;4.97;;
9698;SDS011;10089;47.876;8.346;2023-05-29T03:42:30;10.68;;;4.75;;
9698;SDS011;10089;47.876;8.346;2023-05-29T03:44:58;7.65;;;4.97;;
9698;SDS011;10089;47.876;8.346;2023-05-29T03:47:24;12.20;;;5.63;;
9698;SDS011;10089;47.876;8.346;2023-05-29T03:49:50;9.25;;;5.28;;
9698;SDS011;10089;47.876;8.346;2023-05-29T03:52:16;7.82;;;5.20;;
9698;SDS011;10089;47.876;8.346;2023-05-29T03:54:42;7.35;;;4.40;;
9698;SDS011;10089;47.876;8.346;2023-05-29T03:57:09;8.98;;;4.50;;
9698;SDS011;10089;47.876;8.346;2023-05-29T03:59:35;7.53;;;4.40;;
9698;SDS011;10089;47.876;8.346;2023-05-29T04:02:01;10.90;;;5.65;;
9698;SDS011;10089;47.876;8.346;2023-05-29T04:04:27;8.48;;;4.97;;
9698;SDS011;10089;47.876;8.346;2023-05-29T04:06:53;10.48;;;5.53;;
9698;SDS011;10089;47.876;8.346;2023-05-29T04:09:19;7.82;;;4.82;;
9698;SDS011;10089;47.876;8.346;2023-05-29T04:11:45;9.65;;;4.78;;
9698;SDS011;10089;47.876;8.346;2023-05-29T04:14:11;9.50;;;4.72;;
9698;SDS011;10089;47.876;8.346;2023-05-29T04:16:36;8.85;;;5.03;;
9698;SDS011;10089;47.876;8.346;2023-05-29T04:19:02;10.25;;;5.35;;
9698;SDS011;10089;47.876;8.346;2023-05-29T04:21:28;6.75;;;4.68;;
9698;SDS011;10089;47.876;8.346;2023-05-29T04:23:57;11.02;;;5.03;;
9698;SDS011;10089;47.876;8.346;2023-05-29T04:26:23;9.35;;;5.05;;
9698;SDS011;10089;47.876;8.346;2023-05-29T04:28:54;12.13;;;5.30;;
9698;SDS011;10089;47.876;8.346;2023-05-29T04:31:26;7.38;;;4.53;;
9698;SDS011;10089;47.876;8.346;2023-05-29T04:33:52;7.68;;;4.78;;
9698;SDS011;10089;47.876;8.346;2023-05-29T04:36:24;9.82;;;5.25;;
9698;SDS011;10089;47.876;8.346;2023-05-29T04:38:53;8.65;;;5.05;;
9698;SDS011;10089;47.876;8.346;2023-05-29T04:41:19;11.05;;;5.40;;
9698;SDS011;10089;47.876;8.346;2023-05-29T04:43:48;11.88;;;4.68;;
9698;SDS011;10089;47.876;8.346;2023-05-29T04:46:17;9.20;;;5.05;;
9698;SDS011;10089;47.876;8.346;2023-05-29T04:48:42;7.68;;;5.25;;
9698;SDS011;10089;47.876;8.346;2023-05-29T04:51:09;9.18;;;5.00;;
9698;SDS011;10089;47.876;8.346;2023-05-29T04:53:37;9.68;;;5.32;;
9698;SDS011;10089;47.876;8.346;2023-05-29T04:56:05;6.47;;;4.55;;
9698;SDS011;10089;47.876;8.346;2023-05-29T04:58:30;7.18;;;4.90;;
9698;SDS011;10089;47.876;8.346;2023-05-29T05:00:56;8.90;;;4.38;;
9698;SDS011;10089;47.876;8.346;2023-05-29T05:03:24;10.73;;;5.13;;
9698;SDS011;10089;47.876;8.346;2023-05-29T05:05:51;6.80;;;4.45;;
9698;SDS011;10089;47.876;8.346;2023-05-29T05:08:17;9.00;;;4.60;;
9698;SDS011;10089;47.876;8.346;2023-05-29T05:10:43;8.35;;;5.28;;
9698;SDS011;10089;47.876;8.346;2023-05-29T05:13:08;11.65;;;4.90;;
9698;SDS011;10089;47.876;8.346;2023-05-29T05:15:36;7.38;;;4.90;;
9698;SDS011;10089;47.876;8.346;2023-05-29T05:18:01;9.48;;;4.47;;
9698;SDS011;10089;47.876;8.346;2023-05-29T05:20:27;8.05;;;4.85;;
9698;SDS011;10089;47.876;8.346;2023-05-29T05:22:53;8.77;;;5.28;;
9698;SDS011;10089;47.876;8.346;2023-05-29T05:25:19;8.20;;;4.63;;
9698;SDS011;10089;47.876;8.346;2023-05-29T05:27:44;9.23;;;4.68;;
9698;SDS011;10089;47.876;8.346;2023-05-29T05:30:10;12.15;;;4.85;;
9698;SDS011;10089;47.876;8.346;2023-05-29T05:32:37;9.95;;;4.63;;
9698;SDS011;10089;47.876;8.346;2023-05-29T05:35:02;7.40;;;4.22;;
9698;SDS011;10089;47.876;8.346;2023-05-29T05:37:28;6.68;;;4.40;;
9698;SDS011;10089;47.876;8.346;2023-05-29T05:39:54;11.10;;;4.35;;
9698;SDS011;10089;47.876;8.346;2023-05-29T05:42:22;10.63;;;4.72;;
9698;SDS011;10089;47.876;8.346;2023-05-29T05:44:48;8.73;;;5.07;;
9698;SDS011;10089;47.876;8.346;2023-05-29T05:47:13;9.18;;;4.22;;
9698;SDS011;10089;47.876;8.346;2023-05-29T05:49:39;10.05;;;5.05;;
9698;SDS011;10089;47.876;8.346;2023-05-29T05:52:05;12.00;;;4.75;;
9698;SDS011;10089;47.876;8.346;2023-05-29T05:54:31;10.30;;;4.78;;
9698;SDS011;10089;47.876;8.346;2023-05-29T05:56:57;8.48;;;4.55;;
9698;SDS011;10089;47.876;8.346;2023-05-29T05:59:23;6.38;;;4.15;;
9698;SDS011;10089;47.876;8.346;2023-05-29T06:01:48;9.90;;;5.05;;
9698;SDS011;10089;47.876;8.346;2023-05-29T06:04:14;7.97;;;4.53;;
9698;SDS011;10089;47.876;8.346;2023-05-29T06:06:40;7.85;;;4.82;;
9698;SDS011;10089;47.876;8.346;2023-05-29T06:09:06;6.97;;;4.43;;
9698;SDS011;10089;47.876;8.346;2023-05-29T06:11:32;8.63;;;5.22;;
9698;SDS011;10089;47.876;8.346;2023-05-29T06:13:58;8.13;;;4.57;;
9698;SDS011;10089;47.876;8.346;2023-05-29T06:16:24;6.88;;;4.25;;
9698;SDS011;10089;47.876;8.346;2023-05-29T06:18:50;7.95;;;4.20;;
9698;SDS011;10089;47.876;8.346;2023-05-29T06:21:16;6.57;;;4.28;;
9698;SDS011;10089;47.876;8.346;2023-05-29T06:23:42;7.50;;;4.70;;
9698;SDS011;10089;47.876;8.346;2023-05-29T06:26:07;9.90;;;4.50;;
9698;SDS011;10089;47.876;8.346;2023-05-29T06:28:33;9.63;;;4.63;;
9698;SDS011;10089;47.876;8.346;2023-05-29T06:30:59;7.43;;;4.70;;
9698;SDS011;10089;47.876;8.346;2023-05-29T06:33:24;9.13;;;4.90;;
9698;SDS011;10089;47.876;8.346;2023-05-29T06:35:50;9.00;;;4.45;;
9698;SDS011;10089;47.876;8.346;2023-05-29T06:38:17;8.57;;;4.72;;
9698;SDS011;10089;47.876;8.346;2023-05-29T06:40:46;6.90;;;4.32;;
9698;SDS011;10089;47.876;8.346;2023-05-29T06:43:12;9.35;;;4.10;;
9698;SDS011;10089;47.876;8.346;2023-05-29T06:45:38;9.23;;;4.63;;
9698;SDS011;10089;47.876;8.346;2023-05-29T06:48:04;7.53;;;4.50;;
9698;SDS011;10089;47.876;8.346;2023-05-29T06:50:29;8.50;;;4.85;;
9698;SDS011;10089;47.876;8.346;2023-05-29T06:52:55;9.38;;;4.55;;
9698;SDS011;10089;47.876;8.346;2023-05-29T06:55:21;7.72;;;4.30;;
9698;SDS011;10089;47.876;8.346;2023-05-29T06:57:46;5.75;;;4.55;;
9698;SDS011;10089;47.876;8.346;2023-05-29T07:00:12;6.60;;;4.25;;
9698;SDS011;10089;47.876;8.346;2023-05-29T07:02:41;6.50;;;4.13;;
9698;SDS011;10089;47.876;8.346;2023-05-29T07:05:07;6.40;;;4.20;;
9698;SDS011;10089;47.876;8.346;2023-05-29T07:07:33;7.82;;;4.72;;
9698;SDS011;10089;47.876;8.346;2023-05-29T07:09:58;9.77;;;4.13;;
9698;SDS011;10089;47.876;8.346;2023-05-29T07:12:24;8.68;;;4.68;;
9698;SDS011;10089;47.876;8.346;2023-05-29T07:14:50;7.65;;;4.25;;
9698;SDS011;10089;47.876;8.346;2023-05-29T07:17:16;9.13;;;5.10;;
9698;SDS011;10089;47.876;8.346;2023-05-29T07:19:41;7.43;;;4.38;;
9698;SDS011;10089;47.876;8.346;2023-05-29T07:22:07;7.82;;;4.35;;
9698;SDS011;10089;47.876;8.346;2023-05-29T07:24:33;9.43;;;4.90;;
9698;SDS011;10089;47.876;8.346;2023-05-29T07:26:59;6.10;;;3.92;;
9698;SDS011;10089;47.876;8.346;2023-05-29T07:29:24;9.48;;;4.20;;
9698;SDS011;10089;47.876;8.346;2023-05-29T07:31:50;8.00;;;4.60;;
9698;SDS011;10089;47.876;8.346;2023-05-29T07:34:16;9.55;;;4.88;;
9698;SDS011;10089;47.876;8.346;2023-05-29T07:39:27;6.50;;;4.72;;
9698;SDS011;10089;47.876;8.346;2023-05-29T07:41:53;6.68;;;4.43;;
9698;SDS011;10089;47.876;8.346;2023-05-29T07:44:19;7.72;;;4.47;;
9698;SDS011;10089;47.876;8.346;2023-05-29T07:46:45;13.90;;;4.80;;
9698;SDS011;10089;47.876;8.346;2023-05-29T07:49:11;9.88;;;4.90;;
9698;SDS011;10089;47.876;8.346;2023-05-29T07:51:37;9.30;;;4.70;;
9698;SDS011;10089;47.876;8.346;2023-05-29T07:54:03;8.63;;;4.90;;
9698;SDS011;10089;47.876;8.346;2023-05-29T07:56:28;7.72;;;4.30;;
9698;SDS011;10089;47.876;8.346;2023-05-29T07:58:56;7.80;;;4.18;;
9698;SDS011;10089;47.876;8.346;2023-05-29T08:01:23;7.40;;;4.43;;
9698;SDS011;10089;47.876;8.346;2023-05-29T08:03:49;7.85;;;4.32;;
9698;SDS011;10089;47.876;8.346;2023-05-29T08:06:15;7.57;;;4.78;;
9698;SDS011;10089;47.876;8.346;2023-05-29T08:08:41;7.25;;;4.32;;
9698;SDS011;10089;47.876;8.346;2023-05-29T08:11:08;5.88;;;4.00;;
9698;SDS011;10089;47.876;8.346;2023-05-29T08:13:33;6.40;;;4.05;;
9698;SDS011;10089;47.876;8.346;2023-05-29T08:15:59;7.50;;;4.22;;
9698;SDS011;10089;47.876;8.346;2023-05-29T08:18:25;7.72;;;4.72;;
9698;SDS011;10089;47.876;8.346;2023-05-29T08:20:51;7.18;;;4.10;;
9698;SDS011;10089;47.876;8.346;2023-05-29T08:23:18;7.93;;;4.40;;
9698;SDS011;10089;47.876;8.346;2023-05-29T08:25:44;7.78;;;4.70;;
9698;SDS011;10089;47.876;8.346;2023-05-29T08:28:10;6.40;;;4.32;;
9698;SDS011;10089;47.876;8.346;2023-05-29T08:30:36;6.90;;;4.32;;
9698;SDS011;10089;47.876;8.346;2023-05-29T08:33:15;6.32;;;4.43;;
9698;SDS011;10089;47.876;8.346;2023-05-29T08:35:41;5.22;;;4.10;;
9698;SDS011;10089;47.876;8.346;2023-05-29T08:38:07;7.97;;;4.22;;
9698;SDS011;10089;47.876;8.346;2023-05-29T08:40:34;12.38;;;5.15;;
9698;SDS011;10089;47.876;8.346;2023-05-29T08:43:02;7.55;;;4.63;;
9698;SDS011;10089;47.876;8.346;2023-05-29T08:45:37;8.05;;;4.18;;
9698;SDS011;10089;47.876;8.346;2023-05-29T08:48:09;10.48;;;4.82;;
9698;SDS011;10089;47.876;8.346;2023-05-29T08:50:36;8.18;;;4.97;;
9698;SDS011;10089;47.876;8.346;2023-05-29T08:53:09;7.05;;;5.00;;
9698;SDS011;10089;47.876;8.346;2023-05-29T08:58:05;6.78;;;4.18;;
9698;SDS011;10089;47.876;8.346;2023-05-29T09:00:31;7.10;;;4.35;;
9698;SDS011;10089;47.876;8.346;2023-05-29T09:02:58;8.40;;;4.85;;
9698;SDS011;10089;47.876;8.346;2023-05-29T09:05:28;6.85;;;4.57;;
9698;SDS011;10089;47.876;8.346;2023-05-29T09:07:55;8.73;;;4.97;;
9698;SDS011;10089;47.876;8.346;2023-05-29T09:10:21;8.85;;;4.30;;
9698;SDS011;10089;47.876;8.346;2023-05-29T09:12:47;7.43;;;4.65;;
9698;SDS011;10089;47.876;8.346;2023-05-29T09:15:20;6.70;;;4.72;;
9698;SDS011;10089;47.876;8.346;2023-05-29T09:17:51;8.85;;;4.38;;
9698;SDS011;10089;47.876;8.346;2023-05-29T09:20:18;6.90;;;4.22;;
9698;SDS011;10089;47.876;8.346;2023-05-29T09:23:01;8.73;;;4.22;;
9698;SDS011;10089;47.876;8.346;2023-05-29T09:25:32;6.03;;;4.43;;
9698;SDS011;10089;47.876;8.346;2023-05-29T09:28:05;6.90;;;4.43;;
9698;SDS011;10089;47.876;8.346;2023-05-29T09:30:34;7.22;;;4.35;;
9698;SDS011;10089;47.876;8.346;2023-05-29T09:33:02;7.18;;;4.70;;
9698;SDS011;10089;47.876;8.346;2023-05-29T09:35:47;7.47;;;4.78;;
9698;SDS011;10089;47.876;8.346;2023-05-29T09:38:15;8.32;;;4.25;;
9698;SDS011;10089;47.876;8.346;2023-05-29T09:40:42;6.20;;;4.20;;
9698;SDS011;10089;47.876;8.346;2023-05-29T09:43:14;6.53;;;4.43;;
9698;SDS011;10089;47.876;8.346;2023-05-29T09:45:45;6.30;;;4.32;;
9698;SDS011;10089;47.876;8.346;2023-05-29T09:48:17;8.57;;;4.40;;
9698;SDS011;10089;47.876;8.346;2023-05-29T09:50:44;5.90;;;4.35;;
9698;SDS011;10089;47.876;8.346;2023-05-29T09:55:47;7.28;;;4.53;;
9698;SDS011;10089;47.876;8.346;2023-05-29T09:58:14;10.25;;;4.95;;
9698;SDS011;10089;47.876;8.346;2023-05-29T10:00:44;5.63;;;4.55;;
9698;SDS011;10089;47.876;8.346;2023-05-29T10:03:10;10.85;;;5.07;;
9698;SDS011;10089;47.876;8.346;2023-05-29T10:05:39;8.48;;;4.80;;
9698;SDS011;10089;47.876;8.346;2023-05-29T10:08:11;9.50;;;4.82;;
9698;SDS011;10089;47.876;8.346;2023-05-29T10:10:40;6.95;;;4.95;;
9698;SDS011;10089;47.876;8.346;2023-05-29T10:13:11;6.68;;;4.82;;
9698;SDS011;10089;47.876;8.346;2023-05-29T10:15:39;6.85;;;4.68;;
9698;SDS011;10089;47.876;8.346;2023-05-29T10:18:09;7.50;;;4.55;;
9698;SDS011;10089;47.876;8.346;2023-05-29T10:20:49;10.32;;;5.47;;
9698;SDS011;10089;47.876;8.346;2023-05-29T10:23:17;7.63;;;4.50;;
9698;SDS011;10089;47.876;8.346;2023-05-29T10:25:50;9.13;;;5.10;;
9698;SDS011;10089;47.876;8.346;2023-05-29T10:28:21;7.07;;;4.43;;
9698;SDS011;10089;47.876;8.346;2023-05-29T10:31:02;8.88;;;4.50;;
9698;SDS011;10089;47.876;8.346;2023-05-29T10:33:41;6.38;;;4.55;;
9698;SDS011;10089;47.876;8.346;2023-05-29T10:36:22;7.88;;;4.72;;
9698;SDS011;10089;47.876;8.346;2023-05-29T10:38:53;6.32;;;4.50;;
9698;SDS011;10089;47.876;8.346;2023-05-29T10:43:56;7.13;;;4.85;;
9698;SDS011;10089;47.876;8.346;2023-05-29T10:47:00;7.47;;;4.32;;
9698;SDS011;10089;47.876;8.346;2023-05-29T10:49:18;5.13;;;4.40;;
9698;SDS011;10089;47.876;8.346;2023-05-29T10:51:48;8.05;;;4.05;;
9698;SDS011;10089;47.876;8.346;2023-05-29T10:54:14;7.93;;;4.25;;
9698;SDS011;10089;47.876;8.346;2023-05-29T10:56:44;7.95;;;4.53;;
9698;SDS011;10089;47.876;8.346;2023-05-29T10:59:21;8.18;;;4.53;;
9698;SDS011;10089;47.876;8.346;2023-05-29T11:01:55;5.20;;;4.63;;
9698;SDS011;10089;47.876;8.346;2023-05-29T11:06:51;6.80;;;4.32;;
9698;SDS011;10089;47.876;8.346;2023-05-29T11:09:33;6.95;;;4.78;;
9698;SDS011;10089;47.876;8.346;2023-05-29T11:12:17;7.63;;;4.38;;
9698;SDS011;10089;47.876;8.346;2023-05-29T11:15:10;4.75;;;4.00;;
9698;SDS011;10089;47.876;8.346;2023-05-29T11:20:05;6.97;;;4.50;;
9698;SDS011;10089;47.876;8.346;2023-05-29T11:25:27;5.97;;;4.28;;
9698;SDS011;10089;47.876;8.346;2023-05-29T11:27:54;6.93;;;4.10;;
9698;SDS011;10089;47.876;8.346;2023-05-29T11:30:20;6.47;;;4.05;;
9698;SDS011;10089;47.876;8.346;2023-05-29T11:32:47;5.22;;;3.92;;
9698;SDS011;10089;47.876;8.346;2023-05-29T11:35:13;5.78;;;4.20;;
9698;SDS011;10089;47.876;8.346;2023-05-29T11:37:42;5.57;;;3.78;;
9698;SDS011;10089;47.876;8.346;2023-05-29T11:40:11;5.72;;;3.83;;
9698;SDS011;10089;47.876;8.346;2023-05-29T11:42:41;4.82;;;3.72;;
9698;SDS011;10089;47.876;8.346;2023-05-29T11:47:53;6.85;;;4.03;;
9698;SDS011;10089;47.876;8.346;2023-05-29T11:50:30;6.65;;;4.18;;
9698;SDS011;10089;47.876;8.346;2023-05-29T11:52:57;4.80;;;3.80;;
9698;SDS011;10089;47.876;8.346;2023-05-29T11:55:24;9.13;;;4.35;;
9698;SDS011;10089;47.876;8.346;2023-05-29T11:57:52;7.05;;;3.90;;
9698;SDS011;10089;47.876;8.346;2023-05-29T12:00:34;5.75;;;4.00;;
9698;SDS011;10089;47.876;8.346;2023-05-29T12:03:01;5.95;;;4.20;;
9698;SDS011;10089;47.876;8.346;2023-05-29T12:05:48;6.90;;;3.95;;
9698;SDS011;10089;47.876;8.346;2023-05-29T12:08:17;5.10;;;4.10;;
9698;SDS011;10089;47.876;8.346;2023-05-29T12:10:48;6.07;;;3.63;;
9698;SDS011;10089;47.876;8.346;2023-05-29T12:13:14;7.50;;;4.25;;
9698;SDS011;10089;47.876;8.346;2023-05-29T12:15:43;9.13;;;4.30;;
9698;SDS011;10089;47.876;8.346;2023-05-29T12:18:09;6.35;;;4.38;;
9698;SDS011;10089;47.876;8.346;2023-05-29T12:20:36;5.65;;;3.83;;
9698;SDS011;10089;47.876;8.346;2023-05-29T12:23:02;6.35;;;4.10;;
9698;SDS011;10089;47.876;8.346;2023-05-29T12:25:28;4.32;;;3.35;;
9698;SDS011;10089;47.876;8.346;2023-05-29T12:27:57;5.68;;;3.88;;
9698;SDS011;10089;47.876;8.346;2023-05-29T12:30:23;5.20;;;3.30;;
9698;SDS011;10089;47.876;8.346;2023-05-29T12:32:50;7.07;;;4.03;;
9698;SDS011;10089;47.876;8.346;2023-05-29T12:35:17;10.57;;;4.00;;
9698;SDS011;10089;47.876;8.346;2023-05-29T12:37:55;6.95;;;3.80;;
9698;SDS011;10089;47.876;8.346;2023-05-29T12:40:21;4.95;;;3.85;;
9698;SDS011;10089;47.876;8.346;2023-05-29T12:42:48;7.15;;;3.88;;
9698;SDS011;10089;47.876;8.346;2023-05-29T12:45:19;5.85;;;4.22;;
9698;SDS011;10089;47.876;8.346;2023-05-29T12:50:35;4.93;;;3.42;;
9698;SDS011;10089;47.876;8.346;2023-05-29T12:53:04;8.02;;;3.72;;
9698;SDS011;10089;47.876;8.346;2023-05-29T12:55:37;7.32;;;4.15;;
9698;SDS011;10089;47.876;8.346;2023-05-29T12:58:08;5.32;;;3.33;;
9698;SDS011;10089;47.876;8.346;2023-05-29T13:00:35;5.30;;;3.30;;
9698;SDS011;10089;47.876;8.346;2023-05-29T13:03:03;6.15;;;3.55;;
9698;SDS011;10089;47.876;8.346;2023-05-29T13:05:29;5.30;;;3.35;;
9698;SDS011;10089;47.876;8.346;2023-05-29T13:07:55;6.35;;;3.42;;
9698;SDS011;10089;47.876;8.346;2023-05-29T13:10:22;8.13;;;3.22;;
9698;SDS011;10089;47.876;8.346;2023-05-29T13:12:49;6.32;;;3.40;;
9698;SDS011;10089;47.876;8.346;2023-05-29T13:15:20;5.28;;;3.90;;
9698;SDS011;10089;47.876;8.346;2023-05-29T13:17:46;5.03;;;3.47;;
9698;SDS011;10089;47.876;8.346;2023-05-29T13:20:12;4.78;;;3.28;;
9698;SDS011;10089;47.876;8.346;2023-05-29T13:22:39;6.15;;;3.67;;
9698;SDS011;10089;47.876;8.346;2023-05-29T13:25:24;4.45;;;3.28;;
9698;SDS011;10089;47.876;8.346;2023-05-29T13:30:20;5.00;;;3.58;;
9698;SDS011;10089;47.876;8.346;2023-05-29T13:32:47;5.65;;;3.33;;
9698;SDS011;10089;47.876;8.346;2023-05-29T13:35:20;5.22;;;3.53;;
9698;SDS011;10089;47.876;8.346;2023-05-29T13:37:46;6.28;;;3.65;;
9698;SDS011;10089;47.876;8.346;2023-05-29T13:42:40;5.22;;;3.22;;
9698;SDS011;10089;47.876;8.346;2023-05-29T13:45:08;5.90;;;3.22;;
9698;SDS011;10089;47.876;8.346;2023-05-29T13:47:34;6.03;;;3.20;;
9698;SDS011;10089;47.876;8.346;2023-05-29T13:52:47;5.03;;;2.97;;
9698;SDS011;10089;47.876;8.346;2023-05-29T13:55:12;6.03;;;3.38;;
9698;SDS011;10089;47.876;8.346;2023-05-29T13:57:38;5.93;;;3.58;;
9698;SDS011;10089;47.876;8.346;2023-05-29T14:00:05;5.47;;;3.83;;
9698;SDS011;10089;47.876;8.346;2023-05-29T14:02:31;7.75;;;3.55;;
9698;SDS011;10089;47.876;8.346;2023-05-29T14:04:57;6.55;;;3.38;;
9698;SDS011;10089;47.876;8.346;2023-05-29T14:07:22;5.82;;;3.72;;
9698;SDS011;10089;47.876;8.346;2023-05-29T14:09:49;5.60;;;3.60;;
9698;SDS011;10089;47.876;8.346;2023-05-29T14:12:15;6.03;;;3.63;;
9698;SDS011;10089;47.876;8.346;2023-05-29T14:14:41;6.05;;;3.53;;
9698;SDS011;10089;47.876;8.346;2023-05-29T14:17:07;8.98;;;3.72;;
9698;SDS011;10089;47.876;8.346;2023-05-29T14:19:34;11.32;;;3.45;;
9698;SDS011;10089;47.876;8.346;2023-05-29T14:22:00;8.63;;;3.70;;
9698;SDS011;10089;47.876;8.346;2023-05-29T14:24:26;6.45;;;3.40;;
9698;SDS011;10089;47.876;8.346;2023-05-29T14:26:52;6.22;;;3.67;;
9698;SDS011;10089;47.876;8.346;2023-05-29T14:29:17;4.90;;;3.55;;
9698;SDS011;10089;47.876;8.346;2023-05-29T14:31:43;6.63;;;3.70;;
9698;SDS011;10089;47.876;8.346;2023-05-29T14:34:09;6.68;;;3.83;;
9698;SDS011;10089;47.876;8.346;2023-05-29T14:36:36;6.28;;;3.80;;
9698;SDS011;10089;47.876;8.346;2023-05-29T14:39:02;6.13;;;3.40;;
9698;SDS011;10089;47.876;8.346;2023-05-29T14:41:29;7.82;;;3.80;;
9698;SDS011;10089;47.876;8.346;2023-05-29T14:43:54;6.03;;;3.95;;
9698;SDS011;10089;47.876;8.346;2023-05-29T14:46:23;7.07;;;3.70;;
9698;SDS011;10089;47.876;8.346;2023-05-29T14:48:50;7.50;;;4.05;;
9698;SDS011;10089;47.876;8.346;2023-05-29T14:51:17;7.38;;;4.28;;
9698;SDS011;10089;47.876;8.346;2023-05-29T14:53:44;6.80;;;4.00;;
9698;SDS011;10089;47.876;8.346;2023-05-29T14:56:09;7.05;;;4.05;;
9698;SDS011;10089;47.876;8.346;2023-05-29T14:58:35;5.28;;;3.67;;
9698;SDS011;10089;47.876;8.346;2023-05-29T15:01:01;10.82;;;4.57;;
9698;SDS011;10089;47.876;8.346;2023-05-29T15:03:27;7.15;;;3.40;;
9698;SDS011;10089;47.876;8.346;2023-05-29T15:05:53;7.03;;;3.95;;
9698;SDS011;10089;47.876;8.346;2023-05-29T15:08:19;9.88;;;4.05;;
9698;SDS011;10089;47.876;8.346;2023-05-29T15:10:45;5.20;;;3.63;;
9698;SDS011;10089;47.876;8.346;2023-05-29T15:13:11;5.18;;;3.47;;
9698;SDS011;10089;47.876;8.346;2023-05-29T15:15:37;8.70;;;3.83;;
9698;SDS011;10089;47.876;8.346;2023-05-29T15:18:03;5.18;;;3.58;;
9698;SDS011;10089;47.876;8.346;2023-05-29T15:20:28;7.05;;;4.22;;
9698;SDS011;10089;47.876;8.346;2023-05-29T15:22:54;11.70;;;4.53;;
9698;SDS011;10089;47.876;8.346;2023-05-29T15:25:21;4.95;;;3.75;;
9698;SDS011;10089;47.876;8.346;2023-05-29T15:27:47;7.82;;;3.63;;
9698;SDS011;10089;47.876;8.346;2023-05-29T15:30:14;7.45;;;4.18;;
9698;SDS011;10089;47.876;8.346;2023-05-29T15:32:44;5.07;;;3.75;;
9698;SDS011;10089;47.876;8.346;2023-05-29T15:35:12;8.02;;;3.97;;
9698;SDS011;10089;47.876;8.346;2023-05-29T15:37:40;5.82;;;4.15;;
9698;SDS011;10089;47.876;8.346;2023-05-29T15:40:07;7.75;;;4.10;;
9698;SDS011;10089;47.876;8.346;2023-05-29T15:42:34;6.30;;;4.18;;
9698;SDS011;10089;47.876;8.346;2023-05-29T15:45:00;4.65;;;3.50;;